Time,TemperatureF,DewpointF,PressureIn,WindDirection,WindDirectionDegrees,WindSpeedMPH,WindSpeedGustMPH,Humidity,HourlyPrecipIn,Conditions,Clouds,dailyrainin,SolarRadiationWatts/m^2,SoftwareType,DateUTC
2013-09-27 00:00:00,48.0,48.0,-100.00,NNW,337,0.0,-999.0,99,-99.99,,,-99.99,0.000000,,2013-09-27 04:00:00,
2013-09-27 00:44:00,48.0,48.0,-100.00,NNW,337,0.0,-999.0,99,-99.99,,,-99.99,0.000000,,2013-09-27 04:44:00,
2013-09-27 00:54:00,48.0,48.0,-100.00,NNW,337,0.0,-999.0,99,-99.99,,,-99.99,0.000000,,2013-09-27 04:54:00,
2013-09-27 02:00:00,43.0,43.0,-100.00,West,270,0.0,-999.0,100,-99.99,,,-99.99,0.000000,,2013-09-27 06:00:00,
2013-09-27 02:52:00,43.0,43.0,-100.00,West,270,0.0,-999.0,100,-99.99,,,-99.99,0.000000,,2013-09-27 06:52:00,
2013-09-27 04:42:00,40.0,40.0,-100.00,SW,225,0.0,-999.0,101,-99.99,,,-99.99,0.000000,,2013-09-27 08:42:00,
2013-09-27 05:00:00,39.0,39.0,-100.00,WNW,292,0.0,-999.0,101,-99.99,,,-99.99,0.000000,,2013-09-27 09:00:00,
2013-09-27 05:44:00,39.0,39.0,-100.00,WNW,292,0.0,-999.0,101,-99.99,,,-99.99,0.000000,,2013-09-27 09:44:00,
2013-09-27 05:54:00,39.0,39.0,-100.00,WNW,292,0.0,-999.0,101,-99.99,,,-99.99,0.000000,,2013-09-27 09:54:00,
2013-09-27 07:00:00,38.0,38.0,-100.00,SE,135,0.0,-999.0,101,-99.99,,,-99.99,0.000000,,2013-09-27 11:00:00,
2013-09-27 07:43:00,38.0,38.0,-100.00,SE,135,0.0,-999.0,101,-99.99,,,-99.99,0.000000,,2013-09-27 11:43:00,
2013-09-27 07:52:00,38.0,38.0,-100.00,SE,135,0.0,-999.0,101,-99.99,,,-99.99,0.000000,,2013-09-27 11:52:00,
2013-09-27 09:00:00,45.0,45.0,-100.00,SW,225,0.0,-999.0,102,-99.99,,,-99.99,134.559998,,2013-09-27 13:00:00,
2013-09-27 09:42:00,45.0,45.0,-100.00,SW,225,0.0,-999.0,102,-99.99,,,-99.99,134.559998,,2013-09-27 13:42:00,
2013-09-27 09:53:00,45.0,45.0,-100.00,SW,225,0.0,-999.0,102,-99.99,,,-99.99,134.559998,,2013-09-27 13:53:00,
2013-09-27 10:00:00,54.0,54.0,-100.00,East,90,0.0,-999.0,101,-99.99,,,-99.99,290.000000,,2013-09-27 14:00:00,
2013-09-27 10:42:00,54.0,54.0,-100.00,East,90,0.0,-999.0,101,-99.99,,,-99.99,290.000000,,2013-09-27 14:42:00,
2013-09-27 10:52:00,54.0,54.0,-100.00,East,90,0.0,-999.0,101,-99.99,,,-99.99,290.000000,,2013-09-27 14:52:00,
2013-09-27 11:00:00,63.0,55.0,-100.00,ESE,112,1.0,-999.0,75,-99.99,,,-99.99,455.880005,,2013-09-27 15:00:00,
2013-09-27 11:44:00,63.0,55.0,-100.00,ESE,112,1.0,-999.0,75,-99.99,,,-99.99,455.880005,,2013-09-27 15:44:00,
2013-09-27 11:54:00,63.0,55.0,-100.00,ESE,112,1.0,-999.0,75,-99.99,,,-99.99,455.880005,,2013-09-27 15:54:00,
2013-09-27 12:00:00,69.0,53.0,-100.00,South,180,1.0,-999.0,57,-99.99,,,-99.99,568.400024,,2013-09-27 16:00:00,
2013-09-27 12:44:00,69.0,53.0,-100.00,South,180,1.0,-999.0,57,-99.99,,,-99.99,568.400024,,2013-09-27 16:44:00,
2013-09-27 12:53:00,69.0,53.0,-100.00,South,180,1.0,-999.0,57,-99.99,,,-99.99,568.400024,,2013-09-27 16:53:00,
2013-09-27 13:00:00,74.0,51.0,-100.00,SE,135,2.0,-999.0,44,-99.99,,,-99.99,640.320007,,2013-09-27 17:00:00,
2013-09-27 13:43:00,74.0,51.0,-100.00,SE,135,2.0,-999.0,44,-99.99,,,-99.99,640.320007,,2013-09-27 17:43:00,
2013-09-27 13:52:00,74.0,51.0,-100.00,SE,135,2.0,-999.0,44,-99.99,,,-99.99,640.320007,,2013-09-27 17:52:00,
2013-09-27 14:00:00,76.0,50.0,-100.00,SE,135,3.0,-999.0,39,-99.99,,,-99.99,662.359985,,2013-09-27 18:00:00,
2013-09-27 14:43:00,76.0,50.0,-100.00,SE,135,3.0,-999.0,39,-99.99,,,-99.99,662.359985,,2013-09-27 18:43:00,
2013-09-27 14:52:00,76.0,50.0,-100.00,SE,135,3.0,-999.0,39,-99.99,,,-99.99,662.359985,,2013-09-27 18:52:00,
2013-09-27 15:00:00,78.0,50.0,-100.00,SSE,157,2.0,-999.0,36,-99.99,,,-99.99,633.359985,,2013-09-27 19:00:00,
2013-09-27 15:43:00,78.0,50.0,-100.00,SSE,157,2.0,-999.0,36,-99.99,,,-99.99,633.359985,,2013-09-27 19:43:00,
2013-09-27 15:53:00,78.0,50.0,-100.00,SSE,157,2.0,-999.0,36,-99.99,,,-99.99,633.359985,,2013-09-27 19:53:00,
2013-09-27 16:00:00,79.0,53.0,-100.00,NE,45,5.0,-999.0,41,-99.99,,,-99.99,549.840027,,2013-09-27 20:00:00,
2013-09-27 16:43:00,79.0,53.0,-100.00,NE,45,5.0,-999.0,41,-99.99,,,-99.99,549.840027,,2013-09-27 20:43:00,
2013-09-27 16:52:00,79.0,53.0,-100.00,NE,45,5.0,-999.0,41,-99.99,,,-99.99,549.840027,,2013-09-27 20:52:00,
2013-09-27 17:00:00,78.0,51.0,-100.00,ENE,67,6.0,-999.0,39,-99.99,,,-99.99,429.200012,,2013-09-27 21:00:00,
2013-09-27 17:44:00,78.0,51.0,-100.00,ENE,67,6.0,-999.0,39,-99.99,,,-99.99,429.200012,,2013-09-27 21:44:00,
2013-09-27 17:54:00,78.0,51.0,-100.00,ENE,67,6.0,-999.0,39,-99.99,,,-99.99,429.200012,,2013-09-27 21:54:00,
2013-09-27 18:00:00,76.0,51.0,-100.00,NE,45,7.0,-999.0,42,-99.99,,,-99.99,280.720001,,2013-09-27 22:00:00,
2013-09-27 18:43:00,76.0,51.0,-100.00,NE,45,7.0,-999.0,42,-99.99,,,-99.99,280.720001,,2013-09-27 22:43:00,
2013-09-27 18:54:00,76.0,51.0,-100.00,NE,45,7.0,-999.0,42,-99.99,,,-99.99,280.720001,,2013-09-27 22:54:00,
2013-09-27 19:00:00,71.0,52.0,-100.00,NE,45,5.0,-999.0,50,-99.99,,,-99.99,97.440002,,2013-09-27 23:00:00,
2013-09-27 19:43:00,71.0,52.0,-100.00,NE,45,5.0,-999.0,50,-99.99,,,-99.99,97.440002,,2013-09-27 23:43:00,
2013-09-27 19:53:00,71.0,52.0,-100.00,NE,45,5.0,-999.0,50,-99.99,,,-99.99,97.440002,,2013-09-27 23:53:00,
2013-09-27 20:00:00,62.0,52.0,-100.00,ENE,67,1.0,-999.0,68,-99.99,,,-99.99,6.960000,,2013-09-28 00:00:00,
2013-09-27 20:42:00,62.0,52.0,-100.00,ENE,67,1.0,-999.0,68,-99.99,,,-99.99,6.960000,,2013-09-28 00:42:00,
2013-09-27 20:52:00,62.0,52.0,-100.00,ENE,67,1.0,-999.0,68,-99.99,,,-99.99,6.960000,,2013-09-28 00:52:00,
2013-09-27 21:00:00,58.0,53.0,-100.00,East,90,0.0,-999.0,84,-99.99,,,-99.99,0.000000,,2013-09-28 01:00:00,
2013-09-27 21:42:00,58.0,53.0,-100.00,East,90,0.0,-999.0,84,-99.99,,,-99.99,0.000000,,2013-09-28 01:42:00,
2013-09-27 21:52:00,58.0,53.0,-100.00,East,90,0.0,-999.0,84,-99.99,,,-99.99,0.000000,,2013-09-28 01:52:00,
2013-09-27 22:00:00,52.0,50.0,-100.00,NW,315,0.0,-999.0,92,-99.99,,,-99.99,0.000000,,2013-09-28 02:00:00,
2013-09-27 22:42:00,52.0,50.0,-100.00,NW,315,0.0,-999.0,92,-99.99,,,-99.99,0.000000,,2013-09-28 02:42:00,
2013-09-27 22:53:00,52.0,50.0,-100.00,NW,315,0.0,-999.0,92,-99.99,,,-99.99,0.000000,,2013-09-28 02:53:00,